Time;durP1;ratioP1;P1;durP2;ratioP2;P2;SDS_P1;SDS_P2;PMS_P1;PMS_P2;Temp;Humidity;BMP_temperature;BMP_pressure;BME280_temperature;BME280_humidity;BME280_pressure;Samples;Min_cycle;Max_cycle;Signal;HPM_P1;HPM_P2
2022/11/21 00:01:18;;;;;;;20.08;15.25;;;3.20;99.90;;;;;;5040663;28;20233;-83
2022/11/21 00:03:46;;;;;;;20.15;14.95;;;3.20;99.90;;;;;;5030714;28;20632;-82
2022/11/21 00:06:13;;;;;;;19.85;15.30;;;3.20;99.90;;;;;;5017829;28;20234;-82
2022/11/21 00:08:40;;;;;;;17.30;14.20;;;3.20;99.90;;;;;;5035933;28;20233;-81
2022/11/21 00:11:14;;;;;;;18.35;14.55;;;3.20;99.90;;;;;;5032874;28;20233;-82
2022/11/21 00:13:42;;;;;;;17.83;13.25;;;3.30;99.90;;;;;;5037412;28;20628;-77
2022/11/21 00:16:11;;;;;;;18.70;14.00;;;3.30;99.90;;;;;;5041819;28;20225;-77
2022/11/21 00:18:39;;;;;;;18.52;14.07;;;3.30;99.90;;;;;;5036903;28;20275;-83
2022/11/21 00:21:07;;;;;;;18.27;14.35;;;3.40;99.90;;;;;;5031045;28;20276;-82
2022/11/21 00:23:34;;;;;;;21.27;15.98;;;3.30;99.90;;;;;;5038221;28;20271;-77
2022/11/21 00:26:05;;;;;;;19.40;14.23;;;3.30;99.90;;;;;;5040091;28;20236;-83
2022/11/21 00:28:33;;;;;;;18.00;15.27;;;3.40;99.90;;;;;;5026655;28;20702;-82
2022/11/21 00:31:00;;;;;;;16.42;12.98;;;3.30;99.90;;;;;;5027312;28;20217;-77
2022/11/21 00:33:27;;;;;;;19.55;14.57;;;3.40;99.90;;;;;;5028747;28;20233;-77
2022/11/21 00:35:59;;;;;;;17.98;14.80;;;3.40;99.90;;;;;;5011741;28;20268;-82
2022/11/21 00:38:27;;;;;;;23.92;16.00;;;3.40;99.90;;;;;;5010490;28;20231;-77
2022/11/21 00:40:55;;;;;;;18.02;13.65;;;3.40;99.90;;;;;;5037856;28;20225;-77
2022/11/21 00:43:22;;;;;;;19.05;15.10;;;3.40;99.90;;;;;;5046122;28;20291;-77
2022/11/21 00:45:51;;;;;;;20.60;15.05;;;3.40;99.90;;;;;;5046691;28;20253;-83
2022/11/21 00:48:18;;;;;;;22.33;14.80;;;3.40;99.90;;;;;;5027917;28;20220;-77
2022/11/21 00:50:48;;;;;;;19.40;14.40;;;3.40;99.90;;;;;;5039333;28;20224;-77
2022/11/21 00:53:15;;;;;;;17.38;14.60;;;3.50;99.90;;;;;;5044792;28;20669;-77
2022/11/21 00:55:42;;;;;;;19.63;15.15;;;3.40;99.90;;;;;;5045796;28;20225;-76
2022/11/21 00:58:09;;;;;;;18.20;14.85;;;3.50;99.90;;;;;;5033762;28;20667;-82
2022/11/21 01:00:36;;;;;;;20.52;14.82;;;3.40;99.90;;;;;;5049986;28;20248;-76
2022/11/21 01:03:05;;;;;;;18.30;14.20;;;3.50;99.90;;;;;;5052074;28;20256;-76
2022/11/21 01:05:34;;;;;;;20.30;14.85;;;3.50;99.90;;;;;;5052997;28;20236;-82
2022/11/21 01:08:01;;;;;;;18.13;14.70;;;3.50;99.90;;;;;;5053463;28;20297;-76
2022/11/21 01:10:28;;;;;;;19.77;14.65;;;3.50;99.90;;;;;;5053209;28;20807;-78
2022/11/21 01:12:55;;;;;;;18.83;14.27;;;3.50;99.90;;;;;;5053210;28;20252;-76
2022/11/21 01:15:22;;;;;;;19.60;14.73;;;3.50;99.90;;;;;;5054425;28;20254;-81
2022/11/21 01:17:49;;;;;;;17.55;12.85;;;3.50;99.90;;;;;;5054069;28;20294;-81
2022/11/21 01:20:18;;;;;;;17.73;14.40;;;3.50;99.90;;;;;;5053120;28;20217;-82
2022/11/21 01:22:45;;;;;;;21.33;15.18;;;3.60;99.90;;;;;;5053580;28;20239;-77
2022/11/21 01:25:12;;;;;;;20.25;15.30;;;3.50;99.90;;;;;;5052771;28;20255;-76
2022/11/21 01:27:38;;;;;;;21.60;15.45;;;3.50;99.90;;;;;;5052590;28;20220;-81
2022/11/21 01:30:07;;;;;;;21.27;16.77;;;3.50;99.90;;;;;;5052420;28;20585;-81
2022/11/21 01:32:34;;;;;;;18.83;15.15;;;3.50;99.90;;;;;;5053280;28;20285;-76
2022/11/21 01:35:01;;;;;;;22.35;15.07;;;3.50;99.90;;;;;;5052861;28;20339;-76
2022/11/21 01:37:29;;;;;;;18.48;15.07;;;3.60;99.90;;;;;;5053088;28;20235;-82
2022/11/21 01:39:56;;;;;;;19.52;14.80;;;3.60;99.90;;;;;;5052849;28;20257;-78
2022/11/21 01:42:23;;;;;;;20.00;14.98;;;3.50;99.90;;;;;;5053442;28;20244;-77
2022/11/21 01:44:53;;;;;;;18.05;15.13;;;3.50;99.90;;;;;;5053435;28;20248;-82
2022/11/21 01:47:21;;;;;;;19.27;15.38;;;3.50;99.90;;;;;;5053203;28;20229;-82
2022/11/21 01:49:52;;;;;;;21.48;15.68;;;3.50;99.90;;;;;;5053469;28;20244;-82
2022/11/21 01:52:25;;;;;;;16.98;13.65;;;3.50;99.90;;;;;;5052857;28;20700;-82
2022/11/21 01:54:57;;;;;;;19.58;14.73;;;3.50;99.90;;;;;;5053651;28;20350;-82
2022/11/21 01:57:28;;;;;;;21.52;16.08;;;3.50;99.90;;;;;;5053096;28;20282;-82
2022/11/21 02:00:00;;;;;;;19.70;16.15;;;3.50;99.90;;;;;;5053489;28;20227;-82
2022/11/21 02:02:30;;;;;;;20.45;16.10;;;3.50;99.90;;;;;;5052726;28;20221;-77
2022/11/21 02:04:59;;;;;;;17.80;14.60;;;3.50;99.90;;;;;;5052733;28;20298;-82
2022/11/21 02:07:29;;;;;;;19.80;14.90;;;3.50;99.90;;;;;;5052611;28;20229;-77
2022/11/21 02:10:01;;;;;;;22.52;15.40;;;3.60;99.90;;;;;;5051795;28;20518;-76
2022/11/21 02:12:32;;;;;;;19.27;15.95;;;3.60;99.90;;;;;;5052076;28;20728;-77
2022/11/21 02:15:00;;;;;;;21.17;16.42;;;3.50;99.90;;;;;;5057561;28;20218;-77
2022/11/21 02:17:29;;;;;;;17.77;15.82;;;3.50;99.90;;;;;;5052075;28;20216;-77
2022/11/21 02:19:58;;;;;;;20.58;15.18;;;3.60;99.90;;;;;;5052795;28;20228;-77
2022/11/21 02:22:35;;;;;;;21.23;15.02;;;3.60;99.90;;;;;;5052218;28;20259;-77
2022/11/21 02:25:09;;;;;;;20.27;15.27;;;3.60;99.90;;;;;;5052435;28;20228;-78
2022/11/21 02:27:38;;;;;;;20.23;15.27;;;3.60;99.90;;;;;;5052902;28;20256;-77
2022/11/21 02:30:07;;;;;;;18.63;14.77;;;3.60;99.90;;;;;;5052815;28;20229;-77
2022/11/21 02:32:36;;;;;;;18.25;14.35;;;3.50;99.90;;;;;;5052112;28;20281;-77
2022/11/21 02:35:03;;;;;;;19.65;14.48;;;3.50;99.90;;;;;;5052874;28;20212;-77
2022/11/21 02:37:32;;;;;;;17.85;14.73;;;3.60;99.90;;;;;;5051865;28;20313;-77
2022/11/21 02:40:03;;;;;;;19.45;15.18;;;3.60;99.90;;;;;;5043465;28;20650;-83
2022/11/21 02:42:38;;;;;;;20.98;16.33;;;3.60;99.90;;;;;;5052067;28;20221;-77
2022/11/21 02:45:15;;;;;;;21.10;16.35;;;3.60;99.90;;;;;;5051529;28;20315;-83
2022/11/21 02:47:45;;;;;;;20.42;15.63;;;3.60;99.90;;;;;;5035951;28;20224;-82
2022/11/21 02:50:15;;;;;;;25.00;18.13;;;3.60;99.90;;;;;;5052279;28;20289;-83
2022/11/21 02:52:42;;;;;;;20.25;15.18;;;3.60;99.90;;;;;;5052683;28;20235;-83
2022/11/21 02:55:12;;;;;;;20.35;16.70;;;3.60;99.90;;;;;;5052484;28;20235;-83
2022/11/21 02:57:40;;;;;;;20.23;15.88;;;3.60;99.90;;;;;;5051813;28;20238;-78
2022/11/21 03:00:08;;;;;;;20.45;15.57;;;3.60;99.90;;;;;;5051860;28;20240;-77
2022/11/21 03:02:35;;;;;;;22.48;16.45;;;3.60;99.90;;;;;;5051588;28;20277;-77
2022/11/21 03:05:03;;;;;;;22.52;15.73;;;3.60;99.90;;;;;;5052165;28;20253;-78
2022/11/21 03:07:30;;;;;;;20.77;14.93;;;3.60;99.90;;;;;;5052250;28;20225;-77
2022/11/21 03:09:57;;;;;;;23.17;17.17;;;3.60;99.90;;;;;;5052345;28;20221;-83
2022/11/21 03:12:24;;;;;;;17.90;15.55;;;3.60;99.90;;;;;;5051457;28;20232;-77
2022/11/21 03:14:53;;;;;;;25.13;17.63;;;3.60;99.90;;;;;;5054167;28;20243;-77
2022/11/21 03:17:28;;;;;;;20.30;15.88;;;3.60;99.90;;;;;;5056209;28;20228;-83
2022/11/21 03:19:55;;;;;;;20.92;17.42;;;3.60;99.90;;;;;;5055866;28;20228;-77
2022/11/21 03:22:22;;;;;;;25.73;16.75;;;3.50;99.90;;;;;;5056078;28;20224;-77
2022/11/21 03:24:49;;;;;;;20.63;15.85;;;3.50;99.90;;;;;;5054865;28;20221;-77
2022/11/21 03:27:16;;;;;;;21.15;15.65;;;3.60;99.90;;;;;;5056242;28;20255;-76
2022/11/21 03:29:44;;;;;;;21.90;16.10;;;3.50;99.90;;;;;;5055687;28;20221;-80
2022/11/21 03:32:12;;;;;;;22.85;16.65;;;3.50;99.90;;;;;;5056098;28;20724;-76
2022/11/21 03:34:39;;;;;;;22.92;16.15;;;3.50;99.90;;;;;;5059665;28;20232;-81
2022/11/21 03:37:06;;;;;;;23.45;16.70;;;3.50;99.90;;;;;;5061942;28;20232;-82
2022/11/21 03:39:34;;;;;;;23.50;16.63;;;3.50;99.90;;;;;;5055719;28;20504;-81
2022/11/21 03:42:01;;;;;;;20.30;16.20;;;3.50;99.90;;;;;;5059012;28;20250;-82
2022/11/21 03:44:29;;;;;;;20.15;14.32;;;3.50;99.90;;;;;;5051401;28;20315;-77
2022/11/21 03:46:56;;;;;;;20.80;17.55;;;3.50;99.90;;;;;;5057280;28;20635;-77
2022/11/21 03:49:25;;;;;;;22.63;17.45;;;3.50;99.90;;;;;;5056006;28;20298;-77
2022/11/21 03:51:52;;;;;;;23.50;17.75;;;3.50;99.90;;;;;;5055813;28;20236;-83
2022/11/21 03:54:20;;;;;;;22.90;17.00;;;3.50;99.90;;;;;;5057515;28;20232;-77
2022/11/21 03:56:47;;;;;;;24.95;16.48;;;3.50;99.90;;;;;;5055171;28;20302;-77
2022/11/21 03:59:14;;;;;;;18.73;15.50;;;3.50;99.90;;;;;;5055361;28;20232;-77
2022/11/21 04:01:41;;;;;;;18.65;14.60;;;3.50;99.90;;;;;;5054816;28;20224;-77
2022/11/21 04:04:09;;;;;;;19.95;15.57;;;3.50;99.90;;;;;;5055725;28;20216;-82
2022/11/21 04:06:38;;;;;;;20.95;15.75;;;3.40;99.90;;;;;;5055094;28;20232;-82
2022/11/21 04:09:05;;;;;;;21.50;16.75;;;3.50;99.90;;;;;;5054503;28;20231;-83
2022/11/21 04:11:32;;;;;;;20.23;16.08;;;3.50;99.90;;;;;;5055342;28;20229;-82
2022/11/21 04:13:59;;;;;;;19.40;15.95;;;3.50;99.90;;;;;;5054216;28;20565;-77
2022/11/21 04:16:26;;;;;;;21.40;16.73;;;3.50;99.90;;;;;;5054969;28;20319;-77
2022/11/21 04:18:53;;;;;;;22.92;15.43;;;3.50;99.90;;;;;;5054425;28;20258;-82
2022/11/21 04:21:21;;;;;;;19.95;15.60;;;3.50;99.90;;;;;;5054898;28;20387;-82
2022/11/21 04:23:49;;;;;;;22.15;16.40;;;3.50;99.90;;;;;;5054364;28;20242;-82
2022/11/21 04:26:16;;;;;;;24.08;15.90;;;3.50;99.90;;;;;;5054866;28;20252;-77
2022/11/21 04:28:43;;;;;;;20.58;16.35;;;3.50;99.90;;;;;;5055027;28;20240;-81
2022/11/21 04:31:10;;;;;;;24.02;16.90;;;3.40;99.90;;;;;;5054922;28;20249;-82
2022/11/21 04:33:37;;;;;;;20.38;15.60;;;3.50;99.90;;;;;;5055207;28;20255;-83
2022/11/21 04:36:04;;;;;;;23.73;17.67;;;3.50;99.90;;;;;;5054422;28;20220;-82
2022/11/21 04:38:32;;;;;;;21.60;15.50;;;3.50;99.90;;;;;;5055299;28;20235;-82
2022/11/21 04:41:00;;;;;;;20.85;16.52;;;3.50;99.90;;;;;;5054381;28;20287;-77
2022/11/21 04:43:27;;;;;;;22.00;16.48;;;3.50;99.90;;;;;;5054982;28;20321;-79
2022/11/21 04:45:54;;;;;;;22.02;17.58;;;3.50;99.90;;;;;;5053928;28;20228;-77
2022/11/21 04:48:21;;;;;;;22.67;15.70;;;3.50;99.90;;;;;;5054701;28;20252;-77
2022/11/21 04:50:49;;;;;;;23.98;16.73;;;3.60;99.90;;;;;;5054111;28;20235;-76
2022/11/21 04:53:16;;;;;;;23.00;15.95;;;3.50;99.90;;;;;;5054283;28;20221;-76
2022/11/21 04:55:43;;;;;;;23.80;17.05;;;3.60;99.90;;;;;;5053967;28;20221;-84
2022/11/21 04:58:11;;;;;;;19.23;15.90;;;3.60;99.90;;;;;;5053945;28;20601;-84
2022/11/21 05:00:38;;;;;;;21.25;16.58;;;3.50;99.90;;;;;;5043917;28;20228;-78
2022/11/21 05:03:22;;;;;;;21.63;15.45;;;3.60;99.90;;;;;;5041834;28;20623;-83
2022/11/21 05:05:50;;;;;;;21.65;15.40;;;3.60;99.90;;;;;;5053378;28;20248;-84
2022/11/21 05:08:17;;;;;;;27.33;16.70;;;3.60;99.90;;;;;;5053814;28;20315;-83
2022/11/21 05:13:33;;;;;;;22.02;16.40;;;3.60;99.90;;;;;;5015606;28;20282;-78
2022/11/21 05:16:00;;;;;;;17.50;15.05;;;3.60;99.90;;;;;;5053092;28;20561;-77
2022/11/21 05:18:28;;;;;;;22.77;16.55;;;3.60;99.90;;;;;;5053064;28;20220;-76
2022/11/21 05:20:55;;;;;;;23.27;16.23;;;3.60;99.90;;;;;;5054024;28;20631;-76
2022/11/21 05:23:22;;;;;;;22.80;17.85;;;3.60;99.90;;;;;;5053162;28;20224;-77
2022/11/21 05:25:49;;;;;;;21.67;16.42;;;3.60;99.90;;;;;;5053973;28;20290;-82
2022/11/21 05:28:16;;;;;;;20.35;15.90;;;3.60;99.90;;;;;;5053640;28;20278;-77
2022/11/21 05:30:45;;;;;;;26.70;19.75;;;3.50;99.90;;;;;;5043632;28;20228;-82
2022/11/21 05:33:12;;;;;;;22.70;17.33;;;3.60;99.90;;;;;;5053835;28;20224;-82
2022/11/21 05:35:39;;;;;;;22.80;17.40;;;3.50;99.90;;;;;;5053420;28;20220;-81
2022/11/21 05:38:06;;;;;;;22.70;16.80;;;3.50;99.90;;;;;;5053067;28;20224;-81
2022/11/21 05:40:33;;;;;;;21.90;16.40;;;3.50;99.90;;;;;;5051881;28;20240;-82
2022/11/21 05:45:48;;;;;;;21.08;15.05;;;3.50;99.90;;;;;;5053100;28;20294;-82
2022/11/21 05:48:15;;;;;;;23.83;17.08;;;3.60;99.90;;;;;;5053481;28;20289;-83
2022/11/21 05:50:42;;;;;;;21.63;16.73;;;3.60;99.90;;;;;;5042074;28;20406;-77
2022/11/21 05:53:09;;;;;;;24.02;17.27;;;3.50;99.90;;;;;;5053245;28;20220;-82
2022/11/21 05:55:36;;;;;;;23.98;18.08;;;3.60;99.90;;;;;;5052806;28;20259;-82
2022/11/21 05:58:03;;;;;;;21.75;15.90;;;3.60;99.90;;;;;;5052799;28;20225;-82
2022/11/21 06:00:30;;;;;;;26.65;17.58;;;3.60;99.90;;;;;;5052619;28;20228;-82
2022/11/21 06:05:43;;;;;;;23.15;15.65;;;3.60;99.90;;;;;;5052395;28;20235;-83
2022/11/21 06:08:10;;;;;;;29.50;18.17;;;3.60;99.90;;;;;;5053750;28;20259;-83
2022/11/21 06:10:37;;;;;;;27.00;18.73;;;3.60;99.90;;;;;;5052374;28;20244;-77
2022/11/21 06:13:20;;;;;;;26.13;17.45;;;3.60;99.90;;;;;;5053526;28;20243;-82
2022/11/21 06:15:48;;;;;;;25.10;18.25;;;3.60;99.90;;;;;;5052711;28;20544;-77
2022/11/21 06:18:16;;;;;;;22.52;17.13;;;3.60;99.90;;;;;;5053066;28;20299;-77
2022/11/21 06:20:44;;;;;;;21.42;16.90;;;3.60;99.90;;;;;;5052654;28;20228;-77
2022/11/21 06:23:11;;;;;;;21.60;16.38;;;3.60;99.90;;;;;;5053261;28;20217;-77
2022/11/21 06:25:38;;;;;;;22.70;17.98;;;3.60;99.90;;;;;;5052814;28;20228;-78
2022/11/21 06:28:05;;;;;;;22.45;17.45;;;3.60;99.90;;;;;;5052938;28;20311;-77
2022/11/21 06:30:33;;;;;;;22.25;16.67;;;3.70;99.90;;;;;;5051801;28;20696;-77
2022/11/21 06:33:00;;;;;;;21.73;17.15;;;3.60;99.90;;;;;;5053054;28;20232;-77
2022/11/21 06:35:28;;;;;;;25.98;20.08;;;3.60;99.90;;;;;;5052202;28;20304;-80
2022/11/21 06:37:56;;;;;;;27.10;19.08;;;3.60;99.90;;;;;;5052557;28;20212;-83
2022/11/21 06:40:23;;;;;;;21.33;16.58;;;3.60;99.90;;;;;;5053282;28;20228;-82
2022/11/21 06:42:50;;;;;;;26.98;17.55;;;3.60;99.90;;;;;;5052880;28;20224;-83
2022/11/21 06:45:18;;;;;;;22.00;17.77;;;3.60;99.90;;;;;;5053207;28;20255;-82
2022/11/21 06:47:45;;;;;;;24.67;18.15;;;3.60;99.90;;;;;;5052670;28;20228;-82
2022/11/21 06:50:12;;;;;;;24.40;17.08;;;3.60;99.90;;;;;;5057170;28;20232;-82
2022/11/21 06:52:40;;;;;;;22.05;16.52;;;3.60;99.90;;;;;;5056586;28;20221;-82
2022/11/21 06:55:08;;;;;;;23.73;18.27;;;3.60;99.90;;;;;;5056351;28;20286;-82
2022/11/21 06:57:38;;;;;;;23.38;16.75;;;3.60;99.90;;;;;;5056685;28;20224;-82
2022/11/21 07:00:07;;;;;;;23.15;19.40;;;3.60;99.90;;;;;;5056472;28;20602;-82
2022/11/21 07:02:34;;;;;;;24.48;18.30;;;3.60;99.90;;;;;;5056355;28;20221;-77
2022/11/21 07:05:03;;;;;;;23.45;17.30;;;3.60;99.90;;;;;;5056568;28;20313;-77
2022/11/21 07:07:30;;;;;;;23.50;17.48;;;3.60;99.90;;;;;;5056292;28;20243;-81
2022/11/21 07:10:02;;;;;;;22.33;17.50;;;3.60;99.90;;;;;;5057079;28;20289;-82
2022/11/21 07:15:13;;;;;;;27.55;19.70;;;3.60;99.90;;;;;;5056121;28;20239;-76
2022/11/21 07:17:40;;;;;;;26.77;19.35;;;3.50;99.90;;;;;;5056485;28;20303;-77
2022/11/21 07:20:08;;;;;;;26.75;19.15;;;3.50;99.90;;;;;;5056393;28;20229;-77
2022/11/21 07:22:35;;;;;;;28.73;20.05;;;3.50;99.90;;;;;;5055760;28;20220;-77
2022/11/21 07:25:04;;;;;;;28.98;20.85;;;3.50;99.90;;;;;;5056172;28;20221;-77
2022/11/21 07:27:31;;;;;;;23.23;18.25;;;3.50;99.90;;;;;;5055772;28;20229;-77
2022/11/21 07:29:58;;;;;;;25.35;19.42;;;3.50;99.90;;;;;;5055747;28;20614;-82
2022/11/21 07:32:26;;;;;;;25.92;19.10;;;3.50;99.90;;;;;;5055714;28;20439;-81
2022/11/21 07:34:53;;;;;;;25.55;17.92;;;3.50;99.90;;;;;;5056582;28;20722;-82
2022/11/21 07:37:21;;;;;;;30.25;19.20;;;3.50;99.90;;;;;;5055822;28;20260;-82
2022/11/21 07:39:48;;;;;;;24.40;19.95;;;3.50;99.90;;;;;;5056260;28;20331;-82
2022/11/21 07:42:16;;;;;;;28.48;20.33;;;3.50;99.90;;;;;;5055349;28;20216;-77
2022/11/21 07:44:43;;;;;;;29.33;18.90;;;3.50;99.90;;;;;;5055896;28;20597;-77
2022/11/21 07:47:11;;;;;;;26.10;19.25;;;3.50;99.90;;;;;;5055672;28;20229;-82
2022/11/21 07:49:38;;;;;;;26.98;20.60;;;3.50;99.90;;;;;;5055614;28;20624;-82
2022/11/21 07:52:05;;;;;;;27.50;19.95;;;3.50;99.90;;;;;;5055870;28;20229;-82
2022/11/21 07:54:32;;;;;;;29.33;21.25;;;3.50;99.90;;;;;;5055412;28;20236;-77
2022/11/21 07:56:59;;;;;;;30.38;21.83;;;3.50;99.90;;;;;;5055258;28;20275;-77
2022/11/21 07:59:29;;;;;;;27.45;19.73;;;3.50;99.90;;;;;;5053322;28;20224;-77
2022/11/21 08:01:55;;;;;;;31.90;21.15;;;3.50;99.90;;;;;;5055087;28;20221;-77
2022/11/21 08:04:22;;;;;;;30.08;22.45;;;3.50;99.90;;;;;;5054848;28;20228;-77
2022/11/21 08:06:49;;;;;;;31.02;21.52;;;3.50;99.90;;;;;;5055230;28;20562;-76
2022/11/21 08:09:16;;;;;;;32.25;23.83;;;3.50;99.90;;;;;;5065356;28;20236;-81
2022/11/21 08:11:43;;;;;;;34.25;23.23;;;3.50;99.90;;;;;;5073890;28;20258;-81
2022/11/21 08:14:10;;;;;;;30.13;21.63;;;3.50;99.90;;;;;;5075103;28;20209;-81
2022/11/21 08:16:40;;;;;;;34.22;22.98;;;3.50;99.90;;;;;;5074115;28;20587;-81
2022/11/21 08:19:07;;;;;;;30.90;20.20;;;3.50;99.90;;;;;;5076012;28;20229;-82
2022/11/21 08:21:34;;;;;;;29.88;20.80;;;3.50;99.90;;;;;;5074897;28;20243;-77
2022/11/21 08:24:01;;;;;;;28.65;20.38;;;3.50;99.90;;;;;;5075044;28;20220;-78
2022/11/21 08:26:28;;;;;;;29.30;20.27;;;3.50;99.90;;;;;;5072435;28;20249;-78
2022/11/21 08:28:55;;;;;;;25.48;19.45;;;3.50;99.90;;;;;;5074882;28;20257;-81
2022/11/21 08:32:02;;;;;;;33.97;23.13;;;3.50;99.90;;;;;;5075656;28;20213;-81
2022/11/21 08:34:32;;;;;;;27.85;21.63;;;3.40;99.90;;;;;;5068986;28;20232;-81
2022/11/21 08:37:01;;;;;;;29.13;19.50;;;3.40;99.90;;;;;;5070613;28;20227;-78
2022/11/21 08:39:29;;;;;;;29.38;21.23;;;3.40;99.90;;;;;;5070314;28;20221;-81
2022/11/21 08:42:03;;;;;;;33.00;19.95;;;3.40;99.90;;;;;;5068762;28;20280;-81
2022/11/21 08:44:30;;;;;;;32.03;21.08;;;3.40;99.90;;;;;;5068864;28;20225;-77
2022/11/21 08:46:57;;;;;;;27.45;18.42;;;3.40;99.90;;;;;;5069113;28;20280;-77
2022/11/21 08:49:25;;;;;;;32.53;20.38;;;3.40;99.90;;;;;;5066368;28;20228;-77
2022/11/21 08:51:53;;;;;;;33.90;19.55;;;3.50;99.90;;;;;;5067740;28;20221;-82
2022/11/21 08:54:22;;;;;;;32.22;19.00;;;3.40;99.90;;;;;;5068661;28;20727;-78
2022/11/21 08:56:50;;;;;;;40.97;21.67;;;3.40;99.90;;;;;;5067494;28;20225;-78
2022/11/21 08:59:18;;;;;;;33.45;20.83;;;3.50;99.90;;;;;;5069970;28;20251;-79
2022/11/21 09:01:45;;;;;;;31.80;18.73;;;3.40;99.90;;;;;;5061139;28;20251;-78
2022/11/21 09:04:13;;;;;;;31.90;18.08;;;3.40;99.90;;;;;;5056925;28;20296;-82
2022/11/21 09:06:40;;;;;;;25.60;17.73;;;3.40;99.90;;;;;;5055938;28;20308;-84
2022/11/21 09:09:09;;;;;;;22.88;15.88;;;3.40;99.90;;;;;;5056664;28;20294;-83
2022/11/21 09:11:36;;;;;;;29.35;18.13;;;3.40;99.90;;;;;;5055421;28;20294;-81
2022/11/21 09:19:33;;;;;;;27.85;17.38;;;3.30;99.90;;;;;;5055910;28;20305;-82
2022/11/21 09:22:00;;;;;;;33.55;18.70;;;3.30;99.90;;;;;;5055941;28;20221;-82
2022/11/21 09:24:29;;;;;;;24.98;15.85;;;3.20;99.90;;;;;;5055433;28;20220;-81
2022/11/21 09:26:56;;;;;;;26.25;16.33;;;3.20;99.90;;;;;;5056344;28;20225;-82
2022/11/21 09:29:23;;;;;;;21.55;15.55;;;3.20;99.90;;;;;;5056512;28;20232;-82
2022/11/21 09:31:50;;;;;;;20.60;13.70;;;3.20;99.90;;;;;;5056672;28;20243;-82
2022/11/21 09:34:17;;;;;;;23.17;14.45;;;3.10;99.90;;;;;;5055022;28;20225;-82
2022/11/21 09:36:44;;;;;;;21.70;15.82;;;3.10;99.90;;;;;;5055775;28;20545;-77
2022/11/21 09:39:11;;;;;;;23.90;15.13;;;3.10;99.90;;;;;;5056827;28;20228;-77
2022/11/21 09:41:55;;;;;;;25.63;16.38;;;3.00;99.90;;;;;;5052860;28;20228;-77
2022/11/21 09:44:48;;;;;;;21.00;15.15;;;3.00;99.90;;;;;;5054965;28;20264;-77
2022/11/21 09:47:22;;;;;;;20.70;14.40;;;3.00;99.90;;;;;;5052349;28;20248;-77
2022/11/21 09:49:53;;;;;;;21.27;13.85;;;3.00;99.90;;;;;;5056221;28;20220;-82
2022/11/21 09:52:24;;;;;;;22.45;15.68;;;3.00;99.90;;;;;;5056789;28;20225;-77
2022/11/21 09:54:55;;;;;;;21.30;14.40;;;2.90;99.90;;;;;;5057509;28;20220;-77
2022/11/21 09:57:25;;;;;;;19.48;14.15;;;2.80;99.90;;;;;;5058013;28;20223;-82
2022/11/21 09:59:53;;;;;;;18.65;13.27;;;2.90;99.90;;;;;;5059410;28;20220;-82
2022/11/21 10:02:25;;;;;;;23.98;15.63;;;2.90;99.90;;;;;;5060224;28;20221;-81
2022/11/21 10:04:53;;;;;;;22.80;15.50;;;2.90;99.90;;;;;;5061181;28;20282;-78
2022/11/21 10:07:27;;;;;;;18.52;13.68;;;2.90;99.90;;;;;;5056973;28;20233;-77
2022/11/21 10:10:12;;;;;;;20.67;14.43;;;2.80;99.90;;;;;;5056732;28;20229;-78
2022/11/21 10:12:55;;;;;;;19.25;13.82;;;2.80;99.90;;;;;;5057345;28;20216;-82
2022/11/21 10:15:48;;;;;;;18.10;13.02;;;2.90;99.90;;;;;;5056089;28;20217;-77
2022/11/21 10:18:47;;;;;;;17.17;12.55;;;2.90;99.90;;;;;;5060122;28;20236;-82
2022/11/21 10:21:28;;;;;;;18.70;12.80;;;2.90;99.90;;;;;;5064593;28;20221;-82
2022/11/21 10:24:12;;;;;;;17.15;12.30;;;2.90;99.90;;;;;;5067185;28;20312;-82
2022/11/21 10:26:48;;;;;;;15.90;10.82;;;2.90;99.90;;;;;;5066514;28;20234;-77
2022/11/21 10:29:23;;;;;;;18.38;12.20;;;2.90;99.90;;;;;;5062949;28;20228;-77
2022/11/21 10:31:51;;;;;;;20.95;12.40;;;2.90;99.90;;;;;;5065484;28;20242;-77
2022/11/21 10:34:21;;;;;;;15.30;12.23;;;2.90;99.90;;;;;;5065496;28;20232;-76
2022/11/21 10:36:52;;;;;;;14.60;10.98;;;2.90;99.90;;;;;;5067866;28;20229;-77
2022/11/21 10:39:27;;;;;;;15.75;10.85;;;3.00;99.90;;;;;;5068912;28;20239;-82
2022/11/21 10:42:01;;;;;;;17.05;9.20;;;3.00;99.90;;;;;;5071480;28;20220;-83
2022/11/21 10:47:26;;;;;;;12.98;10.30;;;3.00;99.90;;;;;;5069294;28;20231;-78
2022/11/21 10:49:59;;;;;;;14.38;10.85;;;3.00;99.90;;;;;;5058315;28;20615;-78
2022/11/21 10:52:28;;;;;;;13.93;9.20;;;3.00;99.90;;;;;;5066663;28;20258;-78
2022/11/21 10:55:14;;;;;;;16.27;10.52;;;3.00;99.90;;;;;;5049005;28;20307;-82
2022/11/21 10:57:45;;;;;;;14.98;10.10;;;3.00;99.90;;;;;;5063486;28;20217;-77
2022/11/21 11:00:23;;;;;;;13.75;10.90;;;3.00;99.90;;;;;;5061503;28;20252;-78
2022/11/21 11:03:03;;;;;;;14.57;10.48;;;3.00;99.90;;;;;;5063860;28;20235;-78
2022/11/21 11:05:31;;;;;;;11.77;8.60;;;3.00;99.90;;;;;;5068659;28;20228;-82
2022/11/21 11:08:04;;;;;;;13.43;9.73;;;3.00;99.90;;;;;;5055054;28;20281;-82
2022/11/21 11:10:32;;;;;;;15.38;11.15;;;3.00;99.90;;;;;;5068760;28;20225;-82
2022/11/21 11:16:05;;;;;;;13.35;9.00;;;3.10;99.90;;;;;;5069575;28;20228;-83
2022/11/21 11:18:35;;;;;;;16.05;11.77;;;3.00;99.90;;;;;;5068563;28;20220;-78
2022/11/21 11:21:18;;;;;;;15.95;10.50;;;3.10;99.90;;;;;;5064454;28;20228;-78
2022/11/21 11:23:45;;;;;;;12.55;10.20;;;3.00;99.90;;;;;;5067904;28;20259;-77
2022/11/21 11:26:22;;;;;;;14.85;9.75;;;3.00;99.90;;;;;;5069122;28;20219;-78
2022/11/21 11:28:49;;;;;;;12.05;9.02;;;3.00;99.90;;;;;;5073929;28;20274;-82
2022/11/21 11:31:20;;;;;;;17.75;9.70;;;3.00;99.90;;;;;;5072253;28;20243;-77
2022/11/21 11:33:55;;;;;;;11.48;9.77;;;3.00;99.90;;;;;;5070010;28;20240;-78
2022/11/21 11:36:34;;;;;;;16.80;12.07;;;3.00;99.90;;;;;;5075998;28;20224;-82
2022/11/21 11:39:09;;;;;;;17.98;11.90;;;3.00;99.90;;;;;;5073065;28;20280;-80
2022/11/21 11:47:54;;;;;;;22.75;15.50;;;3.10;99.90;;;;;;5065578;28;20227;-82
2022/11/21 11:50:24;;;;;;;23.15;16.38;;;3.10;99.90;;;;;;5054767;28;20217;-78
2022/11/21 11:52:59;;;;;;;21.92;15.60;;;3.20;99.90;;;;;;5055014;28;20283;-78
2022/11/21 11:55:55;;;;;;;25.90;16.20;;;3.20;99.90;;;;;;5052055;28;21259;-78
2022/11/21 11:58:28;;;;;;;23.45;15.52;;;3.20;99.90;;;;;;5068469;28;20693;-77
2022/11/21 12:01:00;;;;;;;23.85;15.95;;;3.30;99.90;;;;;;5061873;28;20242;-77
2022/11/21 12:03:55;;;;;;;23.92;18.08;;;3.30;99.90;;;;;;5060696;28;20232;-78
2022/11/21 12:06:26;;;;;;;25.38;18.55;;;3.30;99.90;;;;;;5060270;28;20255;-78
2022/11/21 12:09:03;;;;;;;24.55;17.73;;;3.40;99.90;;;;;;5057717;28;20225;-77
2022/11/21 12:17:43;;;;;;;25.88;19.13;;;3.50;99.90;;;;;;5037490;28;20228;-76
2022/11/21 12:20:36;;;;;;;27.38;18.10;;;3.50;99.90;;;;;;5046019;28;20302;-77
2022/11/21 12:23:11;;;;;;;24.48;17.75;;;3.50;99.90;;;;;;5063265;28;20220;-82
2022/11/21 12:25:58;;;;;;;26.38;18.58;;;3.50;99.90;;;;;;5048061;28;20220;-77
2022/11/21 12:28:32;;;;;;;23.02;18.60;;;3.50;99.90;;;;;;5057214;28;20224;-82
2022/11/21 12:31:13;;;;;;;24.05;18.05;;;3.50;99.90;;;;;;5057976;28;20220;-77
2022/11/21 12:33:56;;;;;;;19.73;16.88;;;3.50;99.90;;;;;;5061390;28;20617;-77
2022/11/21 12:36:40;;;;;;;29.00;20.65;;;3.50;99.90;;;;;;5058914;28;20224;-78
2022/11/21 12:39:46;;;;;;;28.30;20.65;;;3.50;99.90;;;;;;5057491;28;20236;-78
2022/11/21 12:45:27;;;;;;;21.98;18.00;;;3.40;99.90;;;;;;5055162;28;20239;-82
2022/11/21 12:54:32;;;;;;;22.40;13.88;;;3.40;99.90;;;;;;5043450;28;20910;-78
2022/11/21 12:57:08;;;;;;;17.45;12.90;;;3.40;99.90;;;;;;5056047;28;20231;-82
2022/11/21 12:59:57;;;;;;;17.70;13.80;;;3.40;99.90;;;;;;5058756;28;20259;-77
2022/11/21 13:02:32;;;;;;;12.27;11.00;;;3.40;99.90;;;;;;5058826;28;20254;-83
2022/11/21 13:05:01;;;;;;;17.42;14.05;;;3.40;99.90;;;;;;5041404;28;20286;-83
2022/11/21 13:07:30;;;;;;;15.57;13.20;;;3.40;99.90;;;;;;5056553;28;20237;-83
2022/11/21 13:10:05;;;;;;;16.52;13.32;;;3.40;99.90;;;;;;5055457;28;20676;-82
2022/11/21 13:12:42;;;;;;;15.57;12.30;;;3.30;99.90;;;;;;5055112;28;20242;-78
2022/11/21 13:15:26;;;;;;;14.95;11.95;;;3.40;99.90;;;;;;5044717;28;20670;-78
2022/11/21 13:17:58;;;;;;;17.08;12.73;;;3.40;99.90;;;;;;5045240;28;20225;-78
2022/11/21 13:20:31;;;;;;;14.27;11.35;;;3.40;99.90;;;;;;5035066;28;20234;-78
2022/11/21 13:22:59;;;;;;;15.57;12.32;;;3.40;99.90;;;;;;5034817;28;20233;-78
2022/11/21 13:25:48;;;;;;;16.52;13.27;;;3.40;99.90;;;;;;5034610;28;20605;-77
2022/11/21 13:28:33;;;;;;;26.40;20.02;;;3.30;99.90;;;;;;5054492;28;20679;-82
2022/11/21 13:31:03;;;;;;;27.45;20.63;;;3.30;99.90;;;;;;5059708;28;20303;-83
2022/11/21 13:33:48;;;;;;;23.70;20.00;;;3.20;99.90;;;;;;5057340;28;20259;-82
2022/11/21 13:36:37;;;;;;;21.13;17.52;;;3.20;99.90;;;;;;5054059;28;20252;-78
2022/11/21 13:39:29;;;;;;;15.35;12.45;;;3.20;99.90;;;;;;5054241;28;20255;-78